Fayetteville, NY (13066)

5:33 AM EDT on August 30, 2015 (GMT -0400)
Minoa | | Change Station
CLOSE
Current Station
Personal Weather Station
Location: Minoa, NY
Elevation: 410 ft
Nearby Weather Stations

Elev 410 ft 43.08 °N, 76.02 °W | Updated 3 seconds ago

Overcast
Overcast
62.8 °F
Feels Like 62.8 °F
N
0.0
Wind Variable Wind from NNW
Gusts 0.0 mph

Today
High -- | Low -- °F
--% Chance of Precip.
Yesterday
High -- | Low -- °F
Precip. -- in
6:25 AM 7:42 PM
Waxing Gibbous, 99% visible
Pressure 30.05 in
Visibility 10.0 miles
Clouds Overcast 6000 ft
Dew Point 62 °F
Humidity 96%
Rainfall 0.00 in
Snow Depth Not available.
UV 0 out of 12
Pollen 8.90 out of 12
Air Quality Not available.
Flu Activity Not available.
METAR KSYR 300854Z 07004KT 10SM OVC060 18/16 A3006 RMK AO2 SLP175 T01780161 56005
Pressure 30.05 in
Visibility 10.0 miles
Clouds Overcast 6000 ft
Dew Point 62 °F
Humidity 96%
Rainfall 0.00 in
Snow Depth Not available.
UV 0 out of 12
Pollen 8.90 out of 12
Air Quality Not available.
Flu Activity Not available.
METAR KSYR 300854Z 07004KT 10SM OVC060 18/16 A3006 RMK AO2 SLP175 T01780161 56005

10-Day Weather Forecast

×

Almanac

Astronomy

Aug. 30, 2015 Rise Set
Actual Time
Civil Twilight
Nautical Twilight
Astronomical Twilight
Moon
Length of Visible Light
Length of Day
Tomorrow will be .
, % of the Moon is Illuminated

Today's Extremes

State Highs State Lows

Community

WunderPhotos

Upload Photos

1,850,919 photos uploaded!

WunderBlogs® & News

Nearby

Air Quality

  Air Quality AQ Index Pollutant
Not available.

Snow Depth

Station Depth Elevation

Earthquake Activity

City Distance Mag. Time & Date
Minimum magnitude displayed is 2.5.

Coastal Water Temperatures

Place Temperature

Stations

Nearby Weather Stations

Station Location Temp. Windchill Dew Point Humidity Wind Precip. Elev Updated Type